sensor_id;sensor_type;location;lat;lon;timestamp;P1;durP1;ratioP1;P2;durP2;ratioP2
10467;SDS011;5281;48.878;9.394;2022-09-02T00:00:32;4.63;;;4.23;;
10467;SDS011;5281;48.878;9.394;2022-09-02T00:02:59;4.20;;;3.80;;
10467;SDS011;5281;48.878;9.394;2022-09-02T00:05:26;4.40;;;4.00;;
10467;SDS011;5281;48.878;9.394;2022-09-02T00:07:55;4.30;;;3.90;;
10467;SDS011;5281;48.878;9.394;2022-09-02T00:10:22;4.20;;;3.80;;
10467;SDS011;5281;48.878;9.394;2022-09-02T00:12:48;4.10;;;3.80;;
10467;SDS011;5281;48.878;9.394;2022-09-02T00:15:15;4.20;;;3.80;;
10467;SDS011;5281;48.878;9.394;2022-09-02T00:17:42;4.27;;;3.83;;
10467;SDS011;5281;48.878;9.394;2022-09-02T00:20:09;4.63;;;3.93;;
10467;SDS011;5281;48.878;9.394;2022-09-02T00:22:36;4.40;;;3.63;;
10467;SDS011;5281;48.878;9.394;2022-09-02T00:25:05;7.00;;;3.80;;
10467;SDS011;5281;48.878;9.394;2022-09-02T00:27:32;6.27;;;3.90;;
10467;SDS011;5281;48.878;9.394;2022-09-02T00:29:59;6.03;;;3.90;;
10467;SDS011;5281;48.878;9.394;2022-09-02T00:32:26;4.97;;;3.87;;
10467;SDS011;5281;48.878;9.394;2022-09-02T00:34:52;7.77;;;4.10;;
10467;SDS011;5281;48.878;9.394;2022-09-02T00:37:20;3.60;;;3.30;;
10467;SDS011;5281;48.878;9.394;2022-09-02T00:39:48;4.57;;;4.10;;
10467;SDS011;5281;48.878;9.394;2022-09-02T00:42:18;4.63;;;3.90;;
10467;SDS011;5281;48.878;9.394;2022-09-02T00:44:45;5.90;;;3.83;;
10467;SDS011;5281;48.878;9.394;2022-09-02T00:47:12;5.90;;;4.20;;
10467;SDS011;5281;48.878;9.394;2022-09-02T00:49:40;3.83;;;3.53;;
10467;SDS011;5281;48.878;9.394;2022-09-02T00:52:12;3.60;;;3.30;;
10467;SDS011;5281;48.878;9.394;2022-09-02T00:54:43;4.30;;;3.90;;
10467;SDS011;5281;48.878;9.394;2022-09-02T00:57:13;4.13;;;3.73;;
10467;SDS011;5281;48.878;9.394;2022-09-02T00:59:47;4.60;;;3.60;;
10467;SDS011;5281;48.878;9.394;2022-09-02T01:02:18;4.27;;;3.90;;
10467;SDS011;5281;48.878;9.394;2022-09-02T01:04:47;5.03;;;3.80;;
10467;SDS011;5281;48.878;9.394;2022-09-02T01:07:14;4.03;;;3.63;;
10467;SDS011;5281;48.878;9.394;2022-09-02T01:09:41;4.37;;;3.57;;
10467;SDS011;5281;48.878;9.394;2022-09-02T01:12:08;5.43;;;4.37;;
10467;SDS011;5281;48.878;9.394;2022-09-02T01:14:37;5.77;;;3.73;;
10467;SDS011;5281;48.878;9.394;2022-09-02T01:17:05;3.93;;;3.60;;
10467;SDS011;5281;48.878;9.394;2022-09-02T01:19:33;4.00;;;3.57;;
10467;SDS011;5281;48.878;9.394;2022-09-02T01:22:06;4.03;;;3.63;;
10467;SDS011;5281;48.878;9.394;2022-09-02T01:24:41;4.10;;;3.70;;
10467;SDS011;5281;48.878;9.394;2022-09-02T01:27:08;4.13;;;3.73;;
10467;SDS011;5281;48.878;9.394;2022-09-02T01:29:39;4.40;;;3.70;;
10467;SDS011;5281;48.878;9.394;2022-09-02T01:32:05;5.13;;;3.97;;
10467;SDS011;5281;48.878;9.394;2022-09-02T01:34:32;3.83;;;3.43;;
10467;SDS011;5281;48.878;9.394;2022-09-02T01:36:59;5.00;;;3.63;;
10467;SDS011;5281;48.878;9.394;2022-09-02T01:39:27;3.60;;;3.30;;
10467;SDS011;5281;48.878;9.394;2022-09-02T01:41:53;3.67;;;3.30;;
10467;SDS011;5281;48.878;9.394;2022-09-02T01:44:20;4.03;;;3.70;;
10467;SDS011;5281;48.878;9.394;2022-09-02T01:46:49;3.53;;;3.23;;
10467;SDS011;5281;48.878;9.394;2022-09-02T01:49:15;4.53;;;3.47;;
10467;SDS011;5281;48.878;9.394;2022-09-02T01:51:42;3.67;;;3.37;;
10467;SDS011;5281;48.878;9.394;2022-09-02T01:54:09;4.07;;;3.30;;
10467;SDS011;5281;48.878;9.394;2022-09-02T01:56:37;5.50;;;3.27;;
10467;SDS011;5281;48.878;9.394;2022-09-02T01:59:04;3.70;;;3.40;;
10467;SDS011;5281;48.878;9.394;2022-09-02T02:01:32;5.60;;;3.30;;
10467;SDS011;5281;48.878;9.394;2022-09-02T02:03:59;3.63;;;3.17;;
10467;SDS011;5281;48.878;9.394;2022-09-02T02:06:26;5.40;;;3.13;;
10467;SDS011;5281;48.878;9.394;2022-09-02T02:08:53;4.67;;;3.30;;
10467;SDS011;5281;48.878;9.394;2022-09-02T02:11:20;3.70;;;3.40;;
10467;SDS011;5281;48.878;9.394;2022-09-02T02:13:49;4.00;;;3.47;;
10467;SDS011;5281;48.878;9.394;2022-09-02T02:16:16;3.57;;;3.27;;
10467;SDS011;5281;48.878;9.394;2022-09-02T02:18:43;5.67;;;3.00;;
10467;SDS011;5281;48.878;9.394;2022-09-02T02:21:09;5.97;;;3.40;;
10467;SDS011;5281;48.878;9.394;2022-09-02T02:23:36;3.20;;;2.93;;
10467;SDS011;5281;48.878;9.394;2022-09-02T02:26:03;3.20;;;2.90;;
10467;SDS011;5281;48.878;9.394;2022-09-02T02:28:30;3.80;;;3.20;;
10467;SDS011;5281;48.878;9.394;2022-09-02T02:30:58;3.57;;;2.73;;
10467;SDS011;5281;48.878;9.394;2022-09-02T02:33:25;3.40;;;3.10;;
10467;SDS011;5281;48.878;9.394;2022-09-02T02:35:52;3.27;;;2.80;;
10467;SDS011;5281;48.878;9.394;2022-09-02T02:38:19;6.07;;;3.00;;
10467;SDS011;5281;48.878;9.394;2022-09-02T02:40:46;3.37;;;2.87;;
10467;SDS011;5281;48.878;9.394;2022-09-02T02:43:13;4.77;;;3.27;;
10467;SDS011;5281;48.878;9.394;2022-09-02T02:45:40;5.53;;;3.50;;
10467;SDS011;5281;48.878;9.394;2022-09-02T02:48:08;3.50;;;3.10;;
10467;SDS011;5281;48.878;9.394;2022-09-02T02:50:37;3.00;;;2.70;;
10467;SDS011;5281;48.878;9.394;2022-09-02T02:53:04;4.10;;;2.57;;
10467;SDS011;5281;48.878;9.394;2022-09-02T02:55:31;4.93;;;2.90;;
10467;SDS011;5281;48.878;9.394;2022-09-02T02:57:57;3.40;;;2.50;;
10467;SDS011;5281;48.878;9.394;2022-09-02T03:00:26;3.10;;;2.63;;
10467;SDS011;5281;48.878;9.394;2022-09-02T03:02:55;4.27;;;2.87;;
10467;SDS011;5281;48.878;9.394;2022-09-02T03:05:24;2.80;;;2.60;;
10467;SDS011;5281;48.878;9.394;2022-09-02T03:07:52;4.50;;;2.67;;
10467;SDS011;5281;48.878;9.394;2022-09-02T03:10:19;2.97;;;2.50;;
10467;SDS011;5281;48.878;9.394;2022-09-02T03:12:47;3.43;;;2.90;;
10467;SDS011;5281;48.878;9.394;2022-09-02T03:15:15;3.50;;;2.63;;
10467;SDS011;5281;48.878;9.394;2022-09-02T03:17:43;2.87;;;2.50;;
10467;SDS011;5281;48.878;9.394;2022-09-02T03:20:10;2.70;;;2.50;;
10467;SDS011;5281;48.878;9.394;2022-09-02T03:22:38;2.93;;;2.73;;
10467;SDS011;5281;48.878;9.394;2022-09-02T03:25:05;2.80;;;2.50;;
10467;SDS011;5281;48.878;9.394;2022-09-02T03:27:33;3.90;;;2.63;;
10467;SDS011;5281;48.878;9.394;2022-09-02T03:30:02;4.00;;;2.80;;
10467;SDS011;5281;48.878;9.394;2022-09-02T03:32:29;4.63;;;2.50;;
10467;SDS011;5281;48.878;9.394;2022-09-02T03:34:56;2.93;;;2.60;;
10467;SDS011;5281;48.878;9.394;2022-09-02T03:37:23;3.30;;;3.00;;
10467;SDS011;5281;48.878;9.394;2022-09-02T03:39:51;4.03;;;2.77;;
10467;SDS011;5281;48.878;9.394;2022-09-02T03:42:17;3.27;;;2.80;;
10467;SDS011;5281;48.878;9.394;2022-09-02T03:44:44;3.13;;;2.70;;
10467;SDS011;5281;48.878;9.394;2022-09-02T03:47:12;3.63;;;2.60;;
10467;SDS011;5281;48.878;9.394;2022-09-02T03:49:41;2.80;;;2.57;;
10467;SDS011;5281;48.878;9.394;2022-09-02T03:52:08;3.07;;;2.53;;
10467;SDS011;5281;48.878;9.394;2022-09-02T03:54:35;3.67;;;3.10;;
10467;SDS011;5281;48.878;9.394;2022-09-02T03:57:03;2.73;;;2.40;;
10467;SDS011;5281;48.878;9.394;2022-09-02T03:59:30;3.73;;;3.07;;
10467;SDS011;5281;48.878;9.394;2022-09-02T04:01:56;3.57;;;2.57;;
10467;SDS011;5281;48.878;9.394;2022-09-02T04:04:23;3.27;;;2.90;;
10467;SDS011;5281;48.878;9.394;2022-09-02T04:06:50;3.43;;;2.80;;
10467;SDS011;5281;48.878;9.394;2022-09-02T04:09:16;3.53;;;2.73;;
10467;SDS011;5281;48.878;9.394;2022-09-02T04:11:44;4.53;;;2.97;;
10467;SDS011;5281;48.878;9.394;2022-09-02T04:14:12;3.17;;;2.80;;
10467;SDS011;5281;48.878;9.394;2022-09-02T04:16:39;3.63;;;2.37;;
10467;SDS011;5281;48.878;9.394;2022-09-02T04:19:06;3.27;;;2.40;;
10467;SDS011;5281;48.878;9.394;2022-09-02T04:21:34;3.00;;;2.27;;
10467;SDS011;5281;48.878;9.394;2022-09-02T04:24:02;3.10;;;2.40;;
10467;SDS011;5281;48.878;9.394;2022-09-02T04:26:28;2.50;;;2.30;;
10467;SDS011;5281;48.878;9.394;2022-09-02T04:28:55;2.93;;;2.30;;
10467;SDS011;5281;48.878;9.394;2022-09-02T04:31:24;2.53;;;2.33;;
10467;SDS011;5281;48.878;9.394;2022-09-02T04:33:53;4.30;;;2.40;;
10467;SDS011;5281;48.878;9.394;2022-09-02T04:36:21;5.37;;;2.50;;
10467;SDS011;5281;48.878;9.394;2022-09-02T04:38:48;3.50;;;2.60;;
10467;SDS011;5281;48.878;9.394;2022-09-02T04:41:16;3.37;;;1.97;;
10467;SDS011;5281;48.878;9.394;2022-09-02T04:43:45;2.53;;;2.33;;
10467;SDS011;5281;48.878;9.394;2022-09-02T04:46:12;2.53;;;2.30;;
10467;SDS011;5281;48.878;9.394;2022-09-02T04:48:42;2.70;;;2.50;;
10467;SDS011;5281;48.878;9.394;2022-09-02T04:51:11;2.97;;;2.33;;
10467;SDS011;5281;48.878;9.394;2022-09-02T04:53:39;5.90;;;2.50;;
10467;SDS011;5281;48.878;9.394;2022-09-02T04:56:08;3.53;;;2.17;;
10467;SDS011;5281;48.878;9.394;2022-09-02T04:58:37;3.87;;;2.37;;
10467;SDS011;5281;48.878;9.394;2022-09-02T05:01:04;2.33;;;2.07;;
10467;SDS011;5281;48.878;9.394;2022-09-02T05:03:31;2.60;;;2.30;;
10467;SDS011;5281;48.878;9.394;2022-09-02T05:06:00;2.77;;;2.23;;
10467;SDS011;5281;48.878;9.394;2022-09-02T05:08:28;2.90;;;2.40;;
10467;SDS011;5281;48.878;9.394;2022-09-02T05:10:55;3.00;;;2.17;;
10467;SDS011;5281;48.878;9.394;2022-09-02T05:13:22;2.90;;;2.47;;
10467;SDS011;5281;48.878;9.394;2022-09-02T05:15:50;3.83;;;2.70;;
10467;SDS011;5281;48.878;9.394;2022-09-02T05:18:18;2.87;;;2.30;;
10467;SDS011;5281;48.878;9.394;2022-09-02T05:20:45;4.43;;;2.30;;
10467;SDS011;5281;48.878;9.394;2022-09-02T05:23:13;2.90;;;2.03;;
10467;SDS011;5281;48.878;9.394;2022-09-02T05:25:40;5.13;;;2.80;;
10467;SDS011;5281;48.878;9.394;2022-09-02T05:28:07;3.17;;;2.60;;
10467;SDS011;5281;48.878;9.394;2022-09-02T05:30:34;2.87;;;2.10;;
10467;SDS011;5281;48.878;9.394;2022-09-02T05:33:01;2.37;;;2.17;;
10467;SDS011;5281;48.878;9.394;2022-09-02T05:35:27;2.83;;;2.30;;
10467;SDS011;5281;48.878;9.394;2022-09-02T05:37:54;4.77;;;2.30;;
10467;SDS011;5281;48.878;9.394;2022-09-02T05:40:22;2.80;;;2.37;;
10467;SDS011;5281;48.878;9.394;2022-09-02T05:42:49;3.27;;;1.80;;
10467;SDS011;5281;48.878;9.394;2022-09-02T05:45:16;1.83;;;1.67;;
10467;SDS011;5281;48.878;9.394;2022-09-02T05:47:43;2.63;;;1.83;;
10467;SDS011;5281;48.878;9.394;2022-09-02T05:50:10;2.20;;;1.80;;
10467;SDS011;5281;48.878;9.394;2022-09-02T05:52:38;2.40;;;1.80;;
10467;SDS011;5281;48.878;9.394;2022-09-02T05:55:05;2.13;;;1.63;;
10467;SDS011;5281;48.878;9.394;2022-09-02T05:57:34;2.60;;;1.67;;
10467;SDS011;5281;48.878;9.394;2022-09-02T06:00:01;3.38;;;1.70;;
10467;SDS011;5281;48.878;9.394;2022-09-02T06:02:30;3.38;;;1.67;;
10467;SDS011;5281;48.878;9.394;2022-09-02T06:04:57;4.40;;;1.60;;
10467;SDS011;5281;48.878;9.394;2022-09-02T06:07:23;4.72;;;1.60;;
10467;SDS011;5281;48.878;9.394;2022-09-02T06:09:50;2.15;;;1.50;;
10467;SDS011;5281;48.878;9.394;2022-09-02T06:12:18;3.17;;;1.45;;
10467;SDS011;5281;48.878;9.394;2022-09-02T06:14:46;2.95;;;1.65;;
10467;SDS011;5281;48.878;9.394;2022-09-02T06:17:14;1.83;;;1.55;;
10467;SDS011;5281;48.878;9.394;2022-09-02T06:19:41;2.80;;;1.75;;
10467;SDS011;5281;48.878;9.394;2022-09-02T06:22:07;3.63;;;1.88;;
10467;SDS011;5281;48.878;9.394;2022-09-02T06:24:34;2.72;;;1.80;;
10467;SDS011;5281;48.878;9.394;2022-09-02T06:27:01;2.55;;;1.70;;
10467;SDS011;5281;48.878;9.394;2022-09-02T06:29:28;3.85;;;2.08;;
10467;SDS011;5281;48.878;9.394;2022-09-02T06:31:56;4.07;;;1.50;;
10467;SDS011;5281;48.878;9.394;2022-09-02T06:34:23;4.90;;;1.65;;
10467;SDS011;5281;48.878;9.394;2022-09-02T06:36:51;1.67;;;1.48;;
10467;SDS011;5281;48.878;9.394;2022-09-02T06:39:19;4.75;;;1.65;;
10467;SDS011;5281;48.878;9.394;2022-09-02T06:41:47;1.85;;;1.30;;
10467;SDS011;5281;48.878;9.394;2022-09-02T06:44:14;2.15;;;1.52;;
10467;SDS011;5281;48.878;9.394;2022-09-02T06:46:43;2.97;;;1.73;;
10467;SDS011;5281;48.878;9.394;2022-09-02T06:49:13;2.25;;;1.30;;
10467;SDS011;5281;48.878;9.394;2022-09-02T06:51:42;3.88;;;1.50;;
10467;SDS011;5281;48.878;9.394;2022-09-02T06:54:11;2.80;;;1.52;;
10467;SDS011;5281;48.878;9.394;2022-09-02T06:56:40;1.92;;;1.33;;
10467;SDS011;5281;48.878;9.394;2022-09-02T06:59:07;2.22;;;2.03;;
10467;SDS011;5281;48.878;9.394;2022-09-02T07:01:33;3.33;;;1.50;;
10467;SDS011;5281;48.878;9.394;2022-09-02T07:04:01;5.68;;;1.42;;
10467;SDS011;5281;48.878;9.394;2022-09-02T07:06:48;4.60;;;1.70;;
10467;SDS011;5281;48.878;9.394;2022-09-02T07:09:18;2.17;;;1.30;;
10467;SDS011;5281;48.878;9.394;2022-09-02T07:11:47;2.33;;;1.40;;
10467;SDS011;5281;48.878;9.394;2022-09-02T07:14:15;3.05;;;1.40;;
10467;SDS011;5281;48.878;9.394;2022-09-02T07:16:43;2.58;;;1.50;;
10467;SDS011;5281;48.878;9.394;2022-09-02T07:19:12;1.52;;;1.20;;
10467;SDS011;5281;48.878;9.394;2022-09-02T07:21:39;1.98;;;1.35;;
10467;SDS011;5281;48.878;9.394;2022-09-02T07:24:08;1.85;;;1.42;;
10467;SDS011;5281;48.878;9.394;2022-09-02T07:26:36;2.72;;;1.38;;
10467;SDS011;5281;48.878;9.394;2022-09-02T07:29:03;2.83;;;1.25;;
10467;SDS011;5281;48.878;9.394;2022-09-02T07:31:33;1.70;;;1.40;;
10467;SDS011;5281;48.878;9.394;2022-09-02T07:34:00;3.65;;;1.40;;
10467;SDS011;5281;48.878;9.394;2022-09-02T07:36:27;2.15;;;1.40;;
10467;SDS011;5281;48.878;9.394;2022-09-02T07:38:53;2.60;;;1.30;;
10467;SDS011;5281;48.878;9.394;2022-09-02T07:41:22;1.67;;;1.40;;
10467;SDS011;5281;48.878;9.394;2022-09-02T07:43:49;3.00;;;1.50;;
10467;SDS011;5281;48.878;9.394;2022-09-02T07:46:16;2.47;;;1.27;;
10467;SDS011;5281;48.878;9.394;2022-09-02T07:48:43;2.17;;;1.35;;
10467;SDS011;5281;48.878;9.394;2022-09-02T07:51:10;4.78;;;1.67;;
10467;SDS011;5281;48.878;9.394;2022-09-02T07:53:36;1.77;;;1.33;;
10467;SDS011;5281;48.878;9.394;2022-09-02T07:56:04;3.08;;;1.27;;
10467;SDS011;5281;48.878;9.394;2022-09-02T07:58:32;1.85;;;1.20;;
10467;SDS011;5281;48.878;9.394;2022-09-02T08:00:59;1.85;;;1.38;;
10467;SDS011;5281;48.878;9.394;2022-09-02T08:03:26;9.38;;;1.67;;
10467;SDS011;5281;48.878;9.394;2022-09-02T08:05:53;5.70;;;1.52;;
10467;SDS011;5281;48.878;9.394;2022-09-02T08:08:21;2.47;;;1.27;;
10467;SDS011;5281;48.878;9.394;2022-09-02T08:10:50;1.85;;;1.20;;
10467;SDS011;5281;48.878;9.394;2022-09-02T08:13:18;3.80;;;1.20;;
10467;SDS011;5281;48.878;9.394;2022-09-02T08:15:46;3.45;;;1.20;;
10467;SDS011;5281;48.878;9.394;2022-09-02T08:18:13;1.85;;;1.30;;
10467;SDS011;5281;48.878;9.394;2022-09-02T08:20:40;2.13;;;1.20;;
10467;SDS011;5281;48.878;9.394;2022-09-02T08:23:07;1.95;;;1.42;;
10467;SDS011;5281;48.878;9.394;2022-09-02T08:25:35;4.60;;;1.30;;
10467;SDS011;5281;48.878;9.394;2022-09-02T08:28:02;2.50;;;1.08;;
10467;SDS011;5281;48.878;9.394;2022-09-02T08:30:29;1.83;;;1.20;;
10467;SDS011;5281;48.878;9.394;2022-09-02T08:32:57;2.75;;;1.10;;
10467;SDS011;5281;48.878;9.394;2022-09-02T08:35:24;1.90;;;1.30;;
10467;SDS011;5281;48.878;9.394;2022-09-02T08:37:50;2.75;;;1.38;;
10467;SDS011;5281;48.878;9.394;2022-09-02T08:40:18;2.17;;;1.38;;
10467;SDS011;5281;48.878;9.394;2022-09-02T08:42:47;1.38;;;1.25;;
10467;SDS011;5281;48.878;9.394;2022-09-02T08:45:17;2.45;;;1.10;;
10467;SDS011;5281;48.878;9.394;2022-09-02T08:47:48;2.38;;;1.23;;
10467;SDS011;5281;48.878;9.394;2022-09-02T08:50:24;2.65;;;1.10;;
10467;SDS011;5281;48.878;9.394;2022-09-02T08:52:55;4.50;;;1.20;;
10467;SDS011;5281;48.878;9.394;2022-09-02T08:55:28;1.85;;;1.20;;
10467;SDS011;5281;48.878;9.394;2022-09-02T08:58:00;1.63;;;1.20;;
10467;SDS011;5281;48.878;9.394;2022-09-02T09:00:27;1.88;;;1.13;;
10467;SDS011;5281;48.878;9.394;2022-09-02T09:03:01;1.70;;;1.10;;
10467;SDS011;5281;48.878;9.394;2022-09-02T09:05:38;1.00;;;0.90;;
10467;SDS011;5281;48.878;9.394;2022-09-02T09:08:13;2.72;;;1.20;;
10467;SDS011;5281;48.878;9.394;2022-09-02T09:10:47;1.25;;;1.13;;
10467;SDS011;5281;48.878;9.394;2022-09-02T09:16:22;4.90;;;1.20;;
10467;SDS011;5281;48.878;9.394;2022-09-02T09:18:56;1.73;;;1.00;;
10467;SDS011;5281;48.878;9.394;2022-09-02T09:21:30;2.08;;;1.10;;
10467;SDS011;5281;48.878;9.394;2022-09-02T09:23:57;1.52;;;1.10;;
10467;SDS011;5281;48.878;9.394;2022-09-02T09:26:28;1.75;;;1.27;;
10467;SDS011;5281;48.878;9.394;2022-09-02T09:29:02;1.67;;;0.98;;
10467;SDS011;5281;48.878;9.394;2022-09-02T09:31:29;1.00;;;0.80;;
10467;SDS011;5281;48.878;9.394;2022-09-02T09:34:00;1.98;;;0.93;;
10467;SDS011;5281;48.878;9.394;2022-09-02T09:39:25;1.33;;;0.90;;
10467;SDS011;5281;48.878;9.394;2022-09-02T09:41:54;3.13;;;0.88;;
10467;SDS011;5281;48.878;9.394;2022-09-02T09:47:13;1.85;;;1.13;;
10467;SDS011;5281;48.878;9.394;2022-09-02T09:49:43;2.58;;;1.30;;
10467;SDS011;5281;48.878;9.394;2022-09-02T09:52:21;3.97;;;1.10;;
10467;SDS011;5281;48.878;9.394;2022-09-02T09:55:03;3.38;;;0.95;;
10467;SDS011;5281;48.878;9.394;2022-09-02T09:57:33;1.45;;;0.80;;
10467;SDS011;5281;48.878;9.394;2022-09-02T10:00:00;1.52;;;1.00;;
10467;SDS011;5281;48.878;9.394;2022-09-02T10:02:27;2.33;;;1.02;;
10467;SDS011;5281;48.878;9.394;2022-09-02T10:05:08;2.40;;;1.17;;
10467;SDS011;5281;48.878;9.394;2022-09-02T10:07:42;3.85;;;1.15;;
10467;SDS011;5281;48.878;9.394;2022-09-02T10:10:20;1.67;;;0.73;;
10467;SDS011;5281;48.878;9.394;2022-09-02T10:12:50;2.47;;;1.27;;
10467;SDS011;5281;48.878;9.394;2022-09-02T10:15:20;1.55;;;1.02;;
10467;SDS011;5281;48.878;9.394;2022-09-02T10:17:55;1.65;;;1.00;;
10467;SDS011;5281;48.878;9.394;2022-09-02T10:20:31;2.67;;;1.15;;
10467;SDS011;5281;48.878;9.394;2022-09-02T10:23:12;3.17;;;0.85;;
10467;SDS011;5281;48.878;9.394;2022-09-02T10:25:52;1.85;;;0.90;;
10467;SDS011;5281;48.878;9.394;2022-09-02T10:28:28;2.28;;;0.73;;
10467;SDS011;5281;48.878;9.394;2022-09-02T10:31:07;2.00;;;1.23;;
10467;SDS011;5281;48.878;9.394;2022-09-02T10:33:45;2.20;;;1.15;;
10467;SDS011;5281;48.878;9.394;2022-09-02T10:36:27;1.08;;;0.95;;
10467;SDS011;5281;48.878;9.394;2022-09-02T10:39:04;2.13;;;1.10;;
10467;SDS011;5281;48.878;9.394;2022-09-02T10:41:40;1.05;;;0.70;;
10467;SDS011;5281;48.878;9.394;2022-09-02T10:46:58;2.58;;;0.77;;
10467;SDS011;5281;48.878;9.394;2022-09-02T10:49:31;2.90;;;0.90;;
10467;SDS011;5281;48.878;9.394;2022-09-02T10:52:22;3.40;;;1.10;;
10467;SDS011;5281;48.878;9.394;2022-09-02T10:55:05;2.42;;;0.80;;
10467;SDS011;5281;48.878;9.394;2022-09-02T10:57:43;2.08;;;0.90;;
10467;SDS011;5281;48.878;9.394;2022-09-02T11:00:13;1.05;;;0.77;;
10467;SDS011;5281;48.878;9.394;2022-09-02T11:02:44;1.75;;;0.88;;
10467;SDS011;5281;48.878;9.394;2022-09-02T11:05:17;2.53;;;1.05;;
10467;SDS011;5281;48.878;9.394;2022-09-02T11:07:49;2.88;;;0.88;;
10467;SDS011;5281;48.878;9.394;2022-09-02T11:10:21;2.42;;;1.20;;
10467;SDS011;5281;48.878;9.394;2022-09-02T11:12:51;3.85;;;0.90;;
10467;SDS011;5281;48.878;9.394;2022-09-02T11:15:26;3.42;;;0.85;;
10467;SDS011;5281;48.878;9.394;2022-09-02T11:18:03;1.42;;;0.52;;
10467;SDS011;5281;48.878;9.394;2022-09-02T11:20:39;3.20;;;0.90;;
10467;SDS011;5281;48.878;9.394;2022-09-02T11:23:12;1.00;;;0.90;;
10467;SDS011;5281;48.878;9.394;2022-09-02T11:25:46;2.47;;;0.75;;
10467;SDS011;5281;48.878;9.394;2022-09-02T11:28:22;4.63;;;1.20;;
10467;SDS011;5281;48.878;9.394;2022-09-02T11:30:56;2.08;;;1.10;;
10467;SDS011;5281;48.878;9.394;2022-09-02T11:33:31;3.92;;;0.80;;
10467;SDS011;5281;48.878;9.394;2022-09-02T11:36:08;2.72;;;1.15;;
10467;SDS011;5281;48.878;9.394;2022-09-02T11:38:36;2.33;;;1.02;;
10467;SDS011;5281;48.878;9.394;2022-09-02T11:41:14;5.30;;;1.00;;
10467;SDS011;5281;48.878;9.394;2022-09-02T11:43:57;1.50;;;0.73;;
10467;SDS011;5281;48.878;9.394;2022-09-02T11:46:44;2.47;;;0.90;;
10467;SDS011;5281;48.878;9.394;2022-09-02T11:49:30;1.60;;;0.80;;
10467;SDS011;5281;48.878;9.394;2022-09-02T11:52:20;1.98;;;0.98;;
10467;SDS011;5281;48.878;9.394;2022-09-02T11:54:57;2.13;;;0.90;;
10467;SDS011;5281;48.878;9.394;2022-09-02T11:57:32;0.70;;;0.70;;
10467;SDS011;5281;48.878;9.394;2022-09-02T12:00:00;0.75;;;0.70;;
10467;SDS011;5281;48.878;9.394;2022-09-02T12:02:36;1.00;;;0.85;;
10467;SDS011;5281;48.878;9.394;2022-09-02T12:08:12;1.88;;;0.90;;
10467;SDS011;5281;48.878;9.394;2022-09-02T12:10:59;1.02;;;0.85;;
10467;SDS011;5281;48.878;9.394;2022-09-02T12:13:34;2.22;;;0.77;;
10467;SDS011;5281;48.878;9.394;2022-09-02T12:19:28;3.33;;;0.77;;
10467;SDS011;5281;48.878;9.394;2022-09-02T12:25:03;1.05;;;0.50;;
10467;SDS011;5281;48.878;9.394;2022-09-02T12:27:45;1.13;;;0.95;;
10467;SDS011;5281;48.878;9.394;2022-09-02T12:31:07;1.70;;;0.60;;
10467;SDS011;5281;48.878;9.394;2022-09-02T12:33:29;1.40;;;0.75;;
10467;SDS011;5281;48.878;9.394;2022-09-02T12:35:56;1.15;;;0.73;;
10467;SDS011;5281;48.878;9.394;2022-09-02T12:38:28;5.95;;;1.00;;
10467;SDS011;5281;48.878;9.394;2022-09-02T12:41:00;1.58;;;0.80;;
10467;SDS011;5281;48.878;9.394;2022-09-02T12:43:59;1.33;;;0.90;;
10467;SDS011;5281;48.878;9.394;2022-09-02T12:46:42;1.65;;;1.05;;
10467;SDS011;5281;48.878;9.394;2022-09-02T12:49:39;1.73;;;0.77;;
10467;SDS011;5281;48.878;9.394;2022-09-02T12:52:36;1.80;;;0.93;;
10467;SDS011;5281;48.878;9.394;2022-09-02T12:55:07;1.08;;;0.80;;
10467;SDS011;5281;48.878;9.394;2022-09-02T12:57:38;1.05;;;0.70;;
10467;SDS011;5281;48.878;9.394;2022-09-02T13:00:06;1.05;;;0.60;;
10467;SDS011;5281;48.878;9.394;2022-09-02T13:02:39;1.67;;;0.82;;
10467;SDS011;5281;48.878;9.394;2022-09-02T13:05:20;1.85;;;1.00;;
10467;SDS011;5281;48.878;9.394;2022-09-02T13:07:54;1.25;;;0.60;;
10467;SDS011;5281;48.878;9.394;2022-09-02T13:13:58;2.10;;;0.75;;
10467;SDS011;5281;48.878;9.394;2022-09-02T13:16:43;3.47;;;0.90;;
10467;SDS011;5281;48.878;9.394;2022-09-02T13:19:41;2.50;;;1.85;;
10467;SDS011;5281;48.878;9.394;2022-09-02T13:22:28;1.88;;;0.57;;
10467;SDS011;5281;48.878;9.394;2022-09-02T13:25:21;2.28;;;0.85;;
10467;SDS011;5281;48.878;9.394;2022-09-02T13:31:06;1.63;;;0.90;;
10467;SDS011;5281;48.878;9.394;2022-09-02T13:33:38;2.20;;;0.90;;
10467;SDS011;5281;48.878;9.394;2022-09-02T13:36:06;1.52;;;1.08;;
10467;SDS011;5281;48.878;9.394;2022-09-02T13:38:34;1.75;;;1.00;;
10467;SDS011;5281;48.878;9.394;2022-09-02T13:41:02;3.35;;;0.82;;
10467;SDS011;5281;48.878;9.394;2022-09-02T13:43:29;1.20;;;0.80;;
10467;SDS011;5281;48.878;9.394;2022-09-02T13:45:58;1.60;;;0.80;;
10467;SDS011;5281;48.878;9.394;2022-09-02T13:48:26;4.00;;;3.28;;
10467;SDS011;5281;48.878;9.394;2022-09-02T13:50:56;3.38;;;0.63;;
10467;SDS011;5281;48.878;9.394;2022-09-02T13:53:27;1.10;;;0.80;;
10467;SDS011;5281;48.878;9.394;2022-09-02T13:56:00;2.33;;;0.90;;
10467;SDS011;5281;48.878;9.394;2022-09-02T13:58:32;2.85;;;1.00;;
10467;SDS011;5281;48.878;9.394;2022-09-02T14:01:22;1.05;;;0.80;;
10467;SDS011;5281;48.878;9.394;2022-09-02T14:03:52;1.52;;;0.77;;
10467;SDS011;5281;48.878;9.394;2022-09-02T14:06:21;1.35;;;0.90;;
10467;SDS011;5281;48.878;9.394;2022-09-02T14:08:51;1.55;;;1.05;;
10467;SDS011;5281;48.878;9.394;2022-09-02T14:11:21;5.47;;;1.25;;
10467;SDS011;5281;48.878;9.394;2022-09-02T14:13:49;2.90;;;1.20;;
10467;SDS011;5281;48.878;9.394;2022-09-02T14:16:23;4.53;;;0.98;;
10467;SDS011;5281;48.878;9.394;2022-09-02T14:19:08;1.40;;;0.90;;
10467;SDS011;5281;48.878;9.394;2022-09-02T14:21:43;3.00;;;1.20;;
10467;SDS011;5281;48.878;9.394;2022-09-02T14:24:12;2.03;;;1.00;;
10467;SDS011;5281;48.878;9.394;2022-09-02T14:26:42;2.97;;;1.15;;
10467;SDS011;5281;48.878;9.394;2022-09-02T14:29:11;3.25;;;0.95;;
10467;SDS011;5281;48.878;9.394;2022-09-02T14:31:40;1.65;;;1.10;;
10467;SDS011;5281;48.878;9.394;2022-09-02T14:36:59;1.88;;;1.00;;
10467;SDS011;5281;48.878;9.394;2022-09-02T14:39:26;3.65;;;1.10;;
10467;SDS011;5281;48.878;9.394;2022-09-02T14:41:54;3.47;;;1.20;;
10467;SDS011;5281;48.878;9.394;2022-09-02T14:44:22;2.53;;;1.23;;
10467;SDS011;5281;48.878;9.394;2022-09-02T14:46:56;3.90;;;0.90;;
10467;SDS011;5281;48.878;9.394;2022-09-02T14:49:26;1.92;;;0.90;;
10467;SDS011;5281;48.878;9.394;2022-09-02T14:51:55;2.97;;;1.05;;
10467;SDS011;5281;48.878;9.394;2022-09-02T14:54:34;3.55;;;0.80;;
10467;SDS011;5281;48.878;9.394;2022-09-02T14:57:05;7.13;;;1.27;;
10467;SDS011;5281;48.878;9.394;2022-09-02T14:59:45;2.50;;;1.02;;
10467;SDS011;5281;48.878;9.394;2022-09-02T15:02:19;2.55;;;0.90;;
10467;SDS011;5281;48.878;9.394;2022-09-02T15:04:48;2.90;;;1.10;;
10467;SDS011;5281;48.878;9.394;2022-09-02T15:07:14;2.78;;;0.90;;
10467;SDS011;5281;48.878;9.394;2022-09-02T15:09:41;1.45;;;0.93;;
10467;SDS011;5281;48.878;9.394;2022-09-02T15:12:11;2.45;;;1.10;;
10467;SDS011;5281;48.878;9.394;2022-09-02T15:14:38;1.70;;;1.10;;
10467;SDS011;5281;48.878;9.394;2022-09-02T15:17:06;1.27;;;1.00;;
10467;SDS011;5281;48.878;9.394;2022-09-02T15:19:35;3.35;;;0.95;;
10467;SDS011;5281;48.878;9.394;2022-09-02T15:22:01;4.00;;;1.10;;
10467;SDS011;5281;48.878;9.394;2022-09-02T15:24:28;1.52;;;0.80;;
10467;SDS011;5281;48.878;9.394;2022-09-02T15:26:55;1.33;;;0.93;;
10467;SDS011;5281;48.878;9.394;2022-09-02T15:29:23;1.83;;;0.88;;
10467;SDS011;5281;48.878;9.394;2022-09-02T15:31:50;1.35;;;1.17;;
10467;SDS011;5281;48.878;9.394;2022-09-02T15:34:17;2.47;;;0.98;;
10467;SDS011;5281;48.878;9.394;2022-09-02T15:36:44;2.17;;;0.88;;
10467;SDS011;5281;48.878;9.394;2022-09-02T15:39:10;1.27;;;1.00;;
10467;SDS011;5281;48.878;9.394;2022-09-02T15:41:37;1.30;;;0.80;;
10467;SDS011;5281;48.878;9.394;2022-09-02T15:44:04;2.85;;;1.05;;
10467;SDS011;5281;48.878;9.394;2022-09-02T15:46:34;1.83;;;1.30;;
10467;SDS011;5281;48.878;9.394;2022-09-02T15:49:02;2.10;;;1.30;;